sensor_id;sensor_type;location;lat;lon;timestamp;temperature;humidity
78733;DHT22;68056;52.530;5.454;2023-08-06T00:01:59;15.70;75.40
78733;DHT22;68056;52.530;5.454;2023-08-06T00:05:26;15.70;75.40
78733;DHT22;68056;52.530;5.454;2023-08-06T00:12:01;15.70;75.50
78733;DHT22;68056;52.530;5.454;2023-08-06T00:14:30;15.70;75.50
78733;DHT22;68056;52.530;5.454;2023-08-06T00:20:21;15.70;75.60
78733;DHT22;68056;52.530;5.454;2023-08-06T00:25:59;15.80;75.50
78733;DHT22;68056;52.530;5.454;2023-08-06T00:28:39;15.80;75.60
78733;DHT22;68056;52.530;5.454;2023-08-06T00:31:12;15.80;75.70
78733;DHT22;68056;52.530;5.454;2023-08-06T00:33:43;15.80;75.50
78733;DHT22;68056;52.530;5.454;2023-08-06T00:36:19;15.80;75.70
78733;DHT22;68056;52.530;5.454;2023-08-06T00:38:47;15.80;75.70
78733;DHT22;68056;52.530;5.454;2023-08-06T00:41:48;15.80;75.70
78733;DHT22;68056;52.530;5.454;2023-08-06T00:44:45;15.80;75.80
78733;DHT22;68056;52.530;5.454;2023-08-06T00:54:27;15.80;75.80
78733;DHT22;68056;52.530;5.454;2023-08-06T00:57:12;15.70;75.80
78733;DHT22;68056;52.530;5.454;2023-08-06T01:00:02;15.70;75.80
78733;DHT22;68056;52.530;5.454;2023-08-06T01:02:33;15.70;75.80
78733;DHT22;68056;52.530;5.454;2023-08-06T01:04:59;15.60;75.90
78733;DHT22;68056;52.530;5.454;2023-08-06T01:15:26;15.60;76.00
78733;DHT22;68056;52.530;5.454;2023-08-06T01:18:03;15.60;76.00
78733;DHT22;68056;52.530;5.454;2023-08-06T01:20:30;15.60;76.00
78733;DHT22;68056;52.530;5.454;2023-08-06T01:23:04;15.60;76.10
78733;DHT22;68056;52.530;5.454;2023-08-06T01:35:32;15.60;76.20
78733;DHT22;68056;52.530;5.454;2023-08-06T01:38:00;15.60;76.10
78733;DHT22;68056;52.530;5.454;2023-08-06T01:40:35;15.60;76.00
78733;DHT22;68056;52.530;5.454;2023-08-06T01:43:12;15.60;76.10
78733;DHT22;68056;52.530;5.454;2023-08-06T01:45:38;15.60;76.10
78733;DHT22;68056;52.530;5.454;2023-08-06T01:48:29;15.60;76.20
78733;DHT22;68056;52.530;5.454;2023-08-06T01:51:38;15.60;76.20
78733;DHT22;68056;52.530;5.454;2023-08-06T01:54:54;15.60;76.20
78733;DHT22;68056;52.530;5.454;2023-08-06T01:57:21;15.60;76.20
78733;DHT22;68056;52.530;5.454;2023-08-06T01:59:47;15.70;76.20
78733;DHT22;68056;52.530;5.454;2023-08-06T02:02:13;15.70;76.20
78733;DHT22;68056;52.530;5.454;2023-08-06T02:04:38;15.70;76.30
78733;DHT22;68056;52.530;5.454;2023-08-06T02:07:48;15.70;76.30
78733;DHT22;68056;52.530;5.454;2023-08-06T02:10:46;15.70;76.20
78733;DHT22;68056;52.530;5.454;2023-08-06T02:13:32;15.70;76.20
78733;DHT22;68056;52.530;5.454;2023-08-06T02:15:58;15.70;76.20
78733;DHT22;68056;52.530;5.454;2023-08-06T02:18:34;15.70;76.20
78733;DHT22;68056;52.530;5.454;2023-08-06T02:21:02;15.70;76.20
78733;DHT22;68056;52.530;5.454;2023-08-06T02:23:41;15.70;76.20
78733;DHT22;68056;52.530;5.454;2023-08-06T02:26:33;15.70;76.30
78733;DHT22;68056;52.530;5.454;2023-08-06T02:29:05;15.70;76.40
78733;DHT22;68056;52.530;5.454;2023-08-06T02:31:30;15.70;76.30
78733;DHT22;68056;52.530;5.454;2023-08-06T02:33:59;15.70;76.30
78733;DHT22;68056;52.530;5.454;2023-08-06T02:36:30;15.70;76.30
78733;DHT22;68056;52.530;5.454;2023-08-06T02:46:49;15.60;76.40
78733;DHT22;68056;52.530;5.454;2023-08-06T04:37:57;15.70;76.40
78733;DHT22;68056;52.530;5.454;2023-08-06T04:41:25;15.70;76.50
78733;DHT22;68056;52.530;5.454;2023-08-06T04:44:23;15.80;76.40
78733;DHT22;68056;52.530;5.454;2023-08-06T05:15:19;15.80;76.40
78733;DHT22;68056;52.530;5.454;2023-08-06T05:25:41;15.80;76.50
78733;DHT22;68056;52.530;5.454;2023-08-06T05:35:37;16.00;76.40
78733;DHT22;68056;52.530;5.454;2023-08-06T05:44:25;16.00;76.40
78733;DHT22;68056;52.530;5.454;2023-08-06T05:47:16;16.00;76.40
78733;DHT22;68056;52.530;5.454;2023-08-06T05:49:55;16.00;76.50
78733;DHT22;68056;52.530;5.454;2023-08-06T05:52:27;16.00;76.50
78733;DHT22;68056;52.530;5.454;2023-08-06T05:54:58;16.00;76.50
78733;DHT22;68056;52.530;5.454;2023-08-06T05:58:08;16.00;76.50
78733;DHT22;68056;52.530;5.454;2023-08-06T06:07:24;16.20;76.40
78733;DHT22;68056;52.530;5.454;2023-08-06T06:10:18;16.30;76.40
78733;DHT22;68056;52.530;5.454;2023-08-06T06:26:58;16.50;76.00
78733;DHT22;68056;52.530;5.454;2023-08-06T06:36:06;16.60;75.90
78733;DHT22;68056;52.530;5.454;2023-08-06T06:38:34;16.60;75.90
78733;DHT22;68056;52.530;5.454;2023-08-06T06:41:06;16.70;76.00
78733;DHT22;68056;52.530;5.454;2023-08-06T06:43:43;16.70;76.00
78733;DHT22;68056;52.530;5.454;2023-08-06T06:46:47;16.80;76.00
78733;DHT22;68056;52.530;5.454;2023-08-06T06:59:15;17.20;75.80
78733;DHT22;68056;52.530;5.454;2023-08-06T07:01:41;17.30;75.70
78733;DHT22;68056;52.530;5.454;2023-08-06T07:04:07;17.40;75.50
78733;DHT22;68056;52.530;5.454;2023-08-06T07:06:32;17.40;75.50
78733;DHT22;68056;52.530;5.454;2023-08-06T07:08:58;17.40;75.60
78733;DHT22;68056;52.530;5.454;2023-08-06T07:11:24;17.50;75.70
78733;DHT22;68056;52.530;5.454;2023-08-06T07:13:55;17.50;75.60
78733;DHT22;68056;52.530;5.454;2023-08-06T07:33:52;17.80;75.50
78733;DHT22;68056;52.530;5.454;2023-08-06T08:26:46;18.60;74.50
78733;DHT22;68056;52.530;5.454;2023-08-06T08:29:12;18.70;74.40
78733;DHT22;68056;52.530;5.454;2023-08-06T08:31:38;18.70;74.30
78733;DHT22;68056;52.530;5.454;2023-08-06T08:34:05;18.60;74.30
78733;DHT22;68056;52.530;5.454;2023-08-06T08:36:58;18.50;74.40
78733;DHT22;68056;52.530;5.454;2023-08-06T08:40:00;18.40;74.60
78733;DHT22;68056;52.530;5.454;2023-08-06T08:42:29;18.30;74.70
78733;DHT22;68056;52.530;5.454;2023-08-06T08:45:04;18.30;74.80
78733;DHT22;68056;52.530;5.454;2023-08-06T08:47:46;18.30;74.80
78733;DHT22;68056;52.530;5.454;2023-08-06T08:53:08;18.40;74.50
78733;DHT22;68056;52.530;5.454;2023-08-06T08:55:53;18.30;74.50
78733;DHT22;68056;52.530;5.454;2023-08-06T09:01:48;18.30;74.40
78733;DHT22;68056;52.530;5.454;2023-08-06T09:04:32;18.20;74.60
78733;DHT22;68056;52.530;5.454;2023-08-06T09:07:20;18.20;74.60
78733;DHT22;68056;52.530;5.454;2023-08-06T09:10:10;18.20;74.60
78733;DHT22;68056;52.530;5.454;2023-08-06T09:12:36;18.20;74.60
78733;DHT22;68056;52.530;5.454;2023-08-06T09:15:18;18.20;74.60
78733;DHT22;68056;52.530;5.454;2023-08-06T09:17:46;18.10;74.60
78733;DHT22;68056;52.530;5.454;2023-08-06T09:23:42;18.20;74.80
78733;DHT22;68056;52.530;5.454;2023-08-06T09:26:32;18.30;74.60
78733;DHT22;68056;52.530;5.454;2023-08-06T09:29:20;18.30;74.50
78733;DHT22;68056;52.530;5.454;2023-08-06T09:32:12;18.30;74.50
78733;DHT22;68056;52.530;5.454;2023-08-06T09:35:10;18.30;74.50
78733;DHT22;68056;52.530;5.454;2023-08-06T09:37:47;18.30;74.50
78733;DHT22;68056;52.530;5.454;2023-08-06T09:40:58;18.40;74.40
78733;DHT22;68056;52.530;5.454;2023-08-06T09:47:04;18.60;74.20
78733;DHT22;68056;52.530;5.454;2023-08-06T09:52:03;18.80;73.70
78733;DHT22;68056;52.530;5.454;2023-08-06T09:54:39;19.00;73.50
78733;DHT22;68056;52.530;5.454;2023-08-06T10:28:24;20.20;70.80
78733;DHT22;68056;52.530;5.454;2023-08-06T10:31:02;19.90;71.00
78733;DHT22;68056;52.530;5.454;2023-08-06T10:33:56;19.60;71.10
78733;DHT22;68056;52.530;5.454;2023-08-06T10:36:22;19.40;71.40
78733;DHT22;68056;52.530;5.454;2023-08-06T10:38:50;19.40;71.50
78733;DHT22;68056;52.530;5.454;2023-08-06T10:41:23;19.20;71.30
78733;DHT22;68056;52.530;5.454;2023-08-06T10:43:49;19.10;71.30
78733;DHT22;68056;52.530;5.454;2023-08-06T10:46:33;18.90;71.40
78733;DHT22;68056;52.530;5.454;2023-08-06T10:48:59;18.80;71.50
78733;DHT22;68056;52.530;5.454;2023-08-06T10:51:25;18.60;71.80
78733;DHT22;68056;52.530;5.454;2023-08-06T10:53:51;18.50;71.80
78733;DHT22;68056;52.530;5.454;2023-08-06T10:56:24;18.40;71.90
78733;DHT22;68056;52.530;5.454;2023-08-06T10:58:53;18.20;72.10
78733;DHT22;68056;52.530;5.454;2023-08-06T11:01:19;18.10;72.40
78733;DHT22;68056;52.530;5.454;2023-08-06T11:03:46;18.00;72.60
78733;DHT22;68056;52.530;5.454;2023-08-06T11:06:22;17.90;72.60
78733;DHT22;68056;52.530;5.454;2023-08-06T11:08:53;17.80;72.60
78733;DHT22;68056;52.530;5.454;2023-08-06T11:11:22;17.80;72.50
78733;DHT22;68056;52.530;5.454;2023-08-06T11:13:59;17.80;72.50
78733;DHT22;68056;52.530;5.454;2023-08-06T11:20:09;17.80;72.40
78733;DHT22;68056;52.530;5.454;2023-08-06T11:22:36;17.80;72.20
78733;DHT22;68056;52.530;5.454;2023-08-06T11:25:10;17.80;72.10
78733;DHT22;68056;52.530;5.454;2023-08-06T11:27:36;17.80;72.00
78733;DHT22;68056;52.530;5.454;2023-08-06T11:30:02;17.70;72.00
78733;DHT22;68056;52.530;5.454;2023-08-06T11:32:28;17.60;72.20
78733;DHT22;68056;52.530;5.454;2023-08-06T11:34:53;17.50;72.50
78733;DHT22;68056;52.530;5.454;2023-08-06T11:37:48;17.50;72.60
78733;DHT22;68056;52.530;5.454;2023-08-06T11:40:15;17.50;72.80
78733;DHT22;68056;52.530;5.454;2023-08-06T11:42:47;17.40;72.90
78733;DHT22;68056;52.530;5.454;2023-08-06T11:45:13;17.30;73.10
78733;DHT22;68056;52.530;5.454;2023-08-06T11:47:39;17.20;73.20
78733;DHT22;68056;52.530;5.454;2023-08-06T11:50:06;17.20;73.20
78733;DHT22;68056;52.530;5.454;2023-08-06T11:52:39;17.20;73.20
78733;DHT22;68056;52.530;5.454;2023-08-06T11:55:09;17.20;73.30
78733;DHT22;68056;52.530;5.454;2023-08-06T11:57:43;17.10;73.40
78733;DHT22;68056;52.530;5.454;2023-08-06T12:00:11;17.00;73.50
78733;DHT22;68056;52.530;5.454;2023-08-06T12:02:39;17.00;73.50
78733;DHT22;68056;52.530;5.454;2023-08-06T12:05:12;17.00;73.50
78733;DHT22;68056;52.530;5.454;2023-08-06T12:07:45;17.00;73.50
78733;DHT22;68056;52.530;5.454;2023-08-06T12:10:13;17.00;73.50
78733;DHT22;68056;52.530;5.454;2023-08-06T12:12:39;16.90;73.40
78733;DHT22;68056;52.530;5.454;2023-08-06T12:15:06;17.00;73.30
78733;DHT22;68056;52.530;5.454;2023-08-06T12:17:33;17.00;73.30
78733;DHT22;68056;52.530;5.454;2023-08-06T12:19:58;16.90;73.30
78733;DHT22;68056;52.530;5.454;2023-08-06T12:22:37;16.90;73.20
78733;DHT22;68056;52.530;5.454;2023-08-06T12:25:08;16.90;73.10
78733;DHT22;68056;52.530;5.454;2023-08-06T12:27:40;16.90;73.00
78733;DHT22;68056;52.530;5.454;2023-08-06T12:30:07;16.90;73.00
78733;DHT22;68056;52.530;5.454;2023-08-06T12:32:35;16.90;73.00
78733;DHT22;68056;52.530;5.454;2023-08-06T12:35:04;16.90;72.90
78733;DHT22;68056;52.530;5.454;2023-08-06T12:37:30;16.90;72.90
78733;DHT22;68056;52.530;5.454;2023-08-06T12:39:59;17.00;73.00
78733;DHT22;68056;52.530;5.454;2023-08-06T12:42:25;17.00;73.00
78733;DHT22;68056;52.530;5.454;2023-08-06T12:44:51;17.00;72.90
78733;DHT22;68056;52.530;5.454;2023-08-06T12:50:20;17.20;72.80
78733;DHT22;68056;52.530;5.454;2023-08-06T12:52:46;17.20;72.70
78733;DHT22;68056;52.530;5.454;2023-08-06T12:55:12;17.20;72.60
78733;DHT22;68056;52.530;5.454;2023-08-06T12:57:37;17.30;72.60
78733;DHT22;68056;52.530;5.454;2023-08-06T13:00:03;17.40;72.50
78733;DHT22;68056;52.530;5.454;2023-08-06T13:02:30;17.50;72.30
78733;DHT22;68056;52.530;5.454;2023-08-06T13:05:05;17.50;72.20
78733;DHT22;68056;52.530;5.454;2023-08-06T13:07:34;17.60;71.90
78733;DHT22;68056;52.530;5.454;2023-08-06T13:10:00;17.80;71.90
78733;DHT22;68056;52.530;5.454;2023-08-06T13:12:25;17.90;71.50
78733;DHT22;68056;52.530;5.454;2023-08-06T13:14:51;18.00;71.40
78733;DHT22;68056;52.530;5.454;2023-08-06T13:17:18;18.10;71.10
78733;DHT22;68056;52.530;5.454;2023-08-06T13:19:44;18.30;71.00
78733;DHT22;68056;52.530;5.454;2023-08-06T13:22:19;18.50;70.70
78733;DHT22;68056;52.530;5.454;2023-08-06T13:24:44;18.90;70.50
78733;DHT22;68056;52.530;5.454;2023-08-06T13:27:10;19.20;69.90
78733;DHT22;68056;52.530;5.454;2023-08-06T13:29:39;19.40;69.50
78733;DHT22;68056;52.530;5.454;2023-08-06T13:32:05;19.50;69.20
78733;DHT22;68056;52.530;5.454;2023-08-06T13:34:31;19.60;69.00
78733;DHT22;68056;52.530;5.454;2023-08-06T13:37:03;19.70;68.90
78733;DHT22;68056;52.530;5.454;2023-08-06T13:39:46;19.60;68.90
78733;DHT22;68056;52.530;5.454;2023-08-06T13:42:12;19.50;69.00
78733;DHT22;68056;52.530;5.454;2023-08-06T13:44:37;19.50;69.00
78733;DHT22;68056;52.530;5.454;2023-08-06T13:47:03;19.60;69.10
78733;DHT22;68056;52.530;5.454;2023-08-06T13:49:29;19.70;69.10
78733;DHT22;68056;52.530;5.454;2023-08-06T13:51:54;19.90;69.10
78733;DHT22;68056;52.530;5.454;2023-08-06T13:54:20;20.00;68.90
78733;DHT22;68056;52.530;5.454;2023-08-06T13:56:46;20.00;68.50
78733;DHT22;68056;52.530;5.454;2023-08-06T13:59:13;20.00;68.50
78733;DHT22;68056;52.530;5.454;2023-08-06T14:01:39;20.10;68.60
78733;DHT22;68056;52.530;5.454;2023-08-06T14:04:05;20.30;68.70
78733;DHT22;68056;52.530;5.454;2023-08-06T14:06:30;20.60;68.30
78733;DHT22;68056;52.530;5.454;2023-08-06T14:08:56;20.90;67.90
78733;DHT22;68056;52.530;5.454;2023-08-06T14:11:22;21.00;67.40
78733;DHT22;68056;52.530;5.454;2023-08-06T14:13:48;21.00;67.30
78733;DHT22;68056;52.530;5.454;2023-08-06T14:16:14;20.80;67.40
78733;DHT22;68056;52.530;5.454;2023-08-06T14:18:39;20.70;67.60
78733;DHT22;68056;52.530;5.454;2023-08-06T14:21:06;20.60;67.70
78733;DHT22;68056;52.530;5.454;2023-08-06T14:23:32;20.50;67.90
78733;DHT22;68056;52.530;5.454;2023-08-06T14:25:58;20.20;68.20
78733;DHT22;68056;52.530;5.454;2023-08-06T14:28:23;20.00;68.60
78733;DHT22;68056;52.530;5.454;2023-08-06T14:30:49;19.80;68.80
78733;DHT22;68056;52.530;5.454;2023-08-06T14:33:15;19.50;69.00
78733;DHT22;68056;52.530;5.454;2023-08-06T14:35:40;19.40;69.30
78733;DHT22;68056;52.530;5.454;2023-08-06T14:38:06;19.20;69.60
78733;DHT22;68056;52.530;5.454;2023-08-06T14:40:32;19.30;69.80
78733;DHT22;68056;52.530;5.454;2023-08-06T14:43:00;19.70;69.60
78733;DHT22;68056;52.530;5.454;2023-08-06T14:45:27;19.80;69.10
78733;DHT22;68056;52.530;5.454;2023-08-06T14:47:52;19.90;68.80
78733;DHT22;68056;52.530;5.454;2023-08-06T14:50:18;19.90;68.70
78733;DHT22;68056;52.530;5.454;2023-08-06T14:52:43;19.70;68.70
78733;DHT22;68056;52.530;5.454;2023-08-06T14:55:09;19.70;68.90
78733;DHT22;68056;52.530;5.454;2023-08-06T14:57:35;19.50;68.90
78733;DHT22;68056;52.530;5.454;2023-08-06T15:00:00;19.40;69.20
78733;DHT22;68056;52.530;5.454;2023-08-06T15:02:41;19.10;69.30
78733;DHT22;68056;52.530;5.454;2023-08-06T15:05:31;18.80;69.70
78733;DHT22;68056;52.530;5.454;2023-08-06T15:08:06;18.60;70.20
78733;DHT22;68056;52.530;5.454;2023-08-06T15:11:01;18.40;70.60
78733;DHT22;68056;52.530;5.454;2023-08-06T15:14:05;18.10;70.90
78733;DHT22;68056;52.530;5.454;2023-08-06T15:16:33;17.80;71.40
78733;DHT22;68056;52.530;5.454;2023-08-06T15:19:00;17.80;71.70
78733;DHT22;68056;52.530;5.454;2023-08-06T15:21:25;17.70;71.90
78733;DHT22;68056;52.530;5.454;2023-08-06T15:23:51;17.80;72.00
78733;DHT22;68056;52.530;5.454;2023-08-06T15:26:17;17.80;72.00
78733;DHT22;68056;52.530;5.454;2023-08-06T15:28:42;17.80;72.00
78733;DHT22;68056;52.530;5.454;2023-08-06T15:31:08;17.80;72.00
78733;DHT22;68056;52.530;5.454;2023-08-06T15:33:34;17.80;72.00
78733;DHT22;68056;52.530;5.454;2023-08-06T15:36:00;17.80;71.80
78733;DHT22;68056;52.530;5.454;2023-08-06T15:38:25;17.70;71.60
78733;DHT22;68056;52.530;5.454;2023-08-06T15:40:51;17.60;71.20
78733;DHT22;68056;52.530;5.454;2023-08-06T15:43:16;17.50;71.00
78733;DHT22;68056;52.530;5.454;2023-08-06T15:45:45;17.50;71.00
78733;DHT22;68056;52.530;5.454;2023-08-06T16:01:35;17.20;71.00
78733;DHT22;68056;52.530;5.454;2023-08-06T16:06:44;17.00;71.00
78733;DHT22;68056;52.530;5.454;2023-08-06T16:11:40;17.10;71.10
78733;DHT22;68056;52.530;5.454;2023-08-06T16:14:11;17.10;71.10
78733;DHT22;68056;52.530;5.454;2023-08-06T16:19:12;17.00;71.20
78733;DHT22;68056;52.530;5.454;2023-08-06T16:24:24;17.00;71.20
78733;DHT22;68056;52.530;5.454;2023-08-06T16:27:15;17.00;71.40
78733;DHT22;68056;52.530;5.454;2023-08-06T16:30:10;17.00;71.40
78733;DHT22;68056;52.530;5.454;2023-08-06T16:33:00;17.00;71.50
78733;DHT22;68056;52.530;5.454;2023-08-06T16:35:27;16.90;71.40
78733;DHT22;68056;52.530;5.454;2023-08-06T16:38:06;16.90;71.50
78733;DHT22;68056;52.530;5.454;2023-08-06T16:40:54;16.90;71.50
78733;DHT22;68056;52.530;5.454;2023-08-06T16:43:56;16.90;71.40
78733;DHT22;68056;52.530;5.454;2023-08-06T16:46:49;16.90;71.30
78733;DHT22;68056;52.530;5.454;2023-08-06T16:49:37;16.80;71.40
78733;DHT22;68056;52.530;5.454;2023-08-06T16:52:41;16.80;71.50
78733;DHT22;68056;52.530;5.454;2023-08-06T16:55:17;16.70;71.50
78733;DHT22;68056;52.530;5.454;2023-08-06T16:57:47;16.80;71.40
78733;DHT22;68056;52.530;5.454;2023-08-06T17:00:43;16.70;71.40
78733;DHT22;68056;52.530;5.454;2023-08-06T17:03:22;16.70;71.50
78733;DHT22;68056;52.530;5.454;2023-08-06T17:06:04;16.60;71.70
78733;DHT22;68056;52.530;5.454;2023-08-06T17:08:30;16.50;72.00
78733;DHT22;68056;52.530;5.454;2023-08-06T17:11:30;16.40;72.20
78733;DHT22;68056;52.530;5.454;2023-08-06T17:13:59;16.40;72.20
78733;DHT22;68056;52.530;5.454;2023-08-06T17:16:45;16.40;72.20
78733;DHT22;68056;52.530;5.454;2023-08-06T17:19:30;16.40;72.30
78733;DHT22;68056;52.530;5.454;2023-08-06T17:22:02;16.40;72.30
78733;DHT22;68056;52.530;5.454;2023-08-06T17:24:29;16.40;72.30
78733;DHT22;68056;52.530;5.454;2023-08-06T17:27:17;16.40;72.40
78733;DHT22;68056;52.530;5.454;2023-08-06T17:29:43;16.30;72.50
78733;DHT22;68056;52.530;5.454;2023-08-06T17:32:09;16.30;72.60
78733;DHT22;68056;52.530;5.454;2023-08-06T17:34:38;16.30;72.60
78733;DHT22;68056;52.530;5.454;2023-08-06T17:37:07;16.20;72.70
78733;DHT22;68056;52.530;5.454;2023-08-06T17:39:33;16.10;72.80
78733;DHT22;68056;52.530;5.454;2023-08-06T17:42:00;16.10;72.90
78733;DHT22;68056;52.530;5.454;2023-08-06T17:47:46;16.20;73.00
78733;DHT22;68056;52.530;5.454;2023-08-06T17:50:18;16.20;73.00
78733;DHT22;68056;52.530;5.454;2023-08-06T17:52:52;16.20;72.90
78733;DHT22;68056;52.530;5.454;2023-08-06T17:58:48;16.20;72.90
78733;DHT22;68056;52.530;5.454;2023-08-06T18:01:33;16.20;72.90
78733;DHT22;68056;52.530;5.454;2023-08-06T18:04:01;16.20;73.00
78733;DHT22;68056;52.530;5.454;2023-08-06T18:06:27;16.20;73.00
78733;DHT22;68056;52.530;5.454;2023-08-06T18:08:52;16.10;73.10
78733;DHT22;68056;52.530;5.454;2023-08-06T18:11:27;16.10;73.20
78733;DHT22;68056;52.530;5.454;2023-08-06T18:17:37;16.00;73.60
78733;DHT22;68056;52.530;5.454;2023-08-06T18:20:29;16.00;73.60
78733;DHT22;68056;52.530;5.454;2023-08-06T18:23:05;16.00;73.60
78733;DHT22;68056;52.530;5.454;2023-08-06T18:25:31;16.10;73.70
78733;DHT22;68056;52.530;5.454;2023-08-06T18:28:03;16.10;73.70
78733;DHT22;68056;52.530;5.454;2023-08-06T18:31:18;16.10;73.70
78733;DHT22;68056;52.530;5.454;2023-08-06T18:37:22;16.20;73.70
78733;DHT22;68056;52.530;5.454;2023-08-06T18:39:55;16.20;73.60
78733;DHT22;68056;52.530;5.454;2023-08-06T18:42:27;16.20;73.50
78733;DHT22;68056;52.530;5.454;2023-08-06T18:45:26;16.10;73.60
78733;DHT22;68056;52.530;5.454;2023-08-06T18:48:18;16.20;73.60
78733;DHT22;68056;52.530;5.454;2023-08-06T18:50:43;16.20;73.50
78733;DHT22;68056;52.530;5.454;2023-08-06T18:56:20;16.10;73.50
78733;DHT22;68056;52.530;5.454;2023-08-06T18:58:46;16.10;73.70
78733;DHT22;68056;52.530;5.454;2023-08-06T19:01:12;16.00;73.80
78733;DHT22;68056;52.530;5.454;2023-08-06T19:03:44;16.00;73.90
78733;DHT22;68056;52.530;5.454;2023-08-06T19:06:10;16.00;74.10
78733;DHT22;68056;52.530;5.454;2023-08-06T19:08:36;15.90;74.30
78733;DHT22;68056;52.530;5.454;2023-08-06T19:11:20;15.80;74.50
78733;DHT22;68056;52.530;5.454;2023-08-06T19:13:47;15.80;74.60
78733;DHT22;68056;52.530;5.454;2023-08-06T19:16:13;15.80;74.80
78733;DHT22;68056;52.530;5.454;2023-08-06T19:18:40;15.80;74.90
78733;DHT22;68056;52.530;5.454;2023-08-06T19:21:06;15.80;74.90
78733;DHT22;68056;52.530;5.454;2023-08-06T19:23:31;15.70;75.00
78733;DHT22;68056;52.530;5.454;2023-08-06T19:25:59;15.70;75.10
78733;DHT22;68056;52.530;5.454;2023-08-06T19:28:31;15.70;75.20
78733;DHT22;68056;52.530;5.454;2023-08-06T19:30:58;15.70;75.30
78733;DHT22;68056;52.530;5.454;2023-08-06T19:33:24;15.70;75.30
78733;DHT22;68056;52.530;5.454;2023-08-06T19:35:55;15.70;75.50
78733;DHT22;68056;52.530;5.454;2023-08-06T19:38:24;15.70;75.60
78733;DHT22;68056;52.530;5.454;2023-08-06T19:40:51;15.60;75.60
78733;DHT22;68056;52.530;5.454;2023-08-06T19:43:26;15.60;75.70
78733;DHT22;68056;52.530;5.454;2023-08-06T19:45:54;15.70;75.80
78733;DHT22;68056;52.530;5.454;2023-08-06T19:48:30;15.70;75.90
78733;DHT22;68056;52.530;5.454;2023-08-06T19:50:58;15.70;75.90
78733;DHT22;68056;52.530;5.454;2023-08-06T19:53:32;15.70;75.90
78733;DHT22;68056;52.530;5.454;2023-08-06T19:56:01;15.70;75.90
78733;DHT22;68056;52.530;5.454;2023-08-06T19:58:28;15.80;76.00
78733;DHT22;68056;52.530;5.454;2023-08-06T20:00:55;15.80;76.00
78733;DHT22;68056;52.530;5.454;2023-08-06T20:03:22;15.80;76.00
78733;DHT22;68056;52.530;5.454;2023-08-06T20:05:48;15.80;76.00
78733;DHT22;68056;52.530;5.454;2023-08-06T20:08:18;15.80;76.10
78733;DHT22;68056;52.530;5.454;2023-08-06T20:11:11;15.80;76.10
78733;DHT22;68056;52.530;5.454;2023-08-06T20:13:37;15.80;76.20
78733;DHT22;68056;52.530;5.454;2023-08-06T20:16:03;15.80;76.20
78733;DHT22;68056;52.530;5.454;2023-08-06T20:18:28;15.80;76.30
78733;DHT22;68056;52.530;5.454;2023-08-06T20:20:54;15.80;76.40
78733;DHT22;68056;52.530;5.454;2023-08-06T20:23:20;15.80;76.40
78733;DHT22;68056;52.530;5.454;2023-08-06T20:25:46;15.80;76.50
78733;DHT22;68056;52.530;5.454;2023-08-06T20:28:14;15.80;76.50
78733;DHT22;68056;52.530;5.454;2023-08-06T20:30:41;15.80;76.60
78733;DHT22;68056;52.530;5.454;2023-08-06T20:33:08;15.80;76.60
78733;DHT22;68056;52.530;5.454;2023-08-06T20:35:37;15.80;76.60
78733;DHT22;68056;52.530;5.454;2023-08-06T20:38:03;15.80;76.70
78733;DHT22;68056;52.530;5.454;2023-08-06T20:40:35;15.80;76.70
78733;DHT22;68056;52.530;5.454;2023-08-06T20:43:03;15.80;76.70
78733;DHT22;68056;52.530;5.454;2023-08-06T20:45:30;15.80;76.80
78733;DHT22;68056;52.530;5.454;2023-08-06T20:48:24;15.80;76.90
78733;DHT22;68056;52.530;5.454;2023-08-06T20:58:51;15.80;76.80
78733;DHT22;68056;52.530;5.454;2023-08-06T21:01:37;15.70;76.70
78733;DHT22;68056;52.530;5.454;2023-08-06T21:04:24;15.60;76.70
78733;DHT22;68056;52.530;5.454;2023-08-06T21:07:24;15.60;76.60
78733;DHT22;68056;52.530;5.454;2023-08-06T21:10:33;15.60;76.60
78733;DHT22;68056;52.530;5.454;2023-08-06T21:13:44;15.60;76.60
78733;DHT22;68056;52.530;5.454;2023-08-06T21:19:56;15.50;76.60
78733;DHT22;68056;52.530;5.454;2023-08-06T21:22:43;15.50;76.60
78733;DHT22;68056;52.530;5.454;2023-08-06T21:25:13;15.50;76.50
78733;DHT22;68056;52.530;5.454;2023-08-06T21:27:58;15.50;76.50
78733;DHT22;68056;52.530;5.454;2023-08-06T21:30:35;15.50;76.40
78733;DHT22;68056;52.530;5.454;2023-08-06T21:33:01;15.40;76.50
78733;DHT22;68056;52.530;5.454;2023-08-06T21:35:29;15.40;76.40
78733;DHT22;68056;52.530;5.454;2023-08-06T21:37:58;15.40;76.40
78733;DHT22;68056;52.530;5.454;2023-08-06T21:40:36;15.30;76.20
78733;DHT22;68056;52.530;5.454;2023-08-06T21:43:01;15.40;76.30
78733;DHT22;68056;52.530;5.454;2023-08-06T21:49:15;15.30;76.10
78733;DHT22;68056;52.530;5.454;2023-08-06T21:51:44;15.30;76.20
78733;DHT22;68056;52.530;5.454;2023-08-06T21:54:10;15.30;76.10
78733;DHT22;68056;52.530;5.454;2023-08-06T21:56:43;15.20;76.20
78733;DHT22;68056;52.530;5.454;2023-08-06T21:59:09;15.20;76.10
78733;DHT22;68056;52.530;5.454;2023-08-06T22:01:41;15.20;76.10
78733;DHT22;68056;52.530;5.454;2023-08-06T22:04:18;15.10;76.10
78733;DHT22;68056;52.530;5.454;2023-08-06T22:07:15;15.10;76.20
78733;DHT22;68056;52.530;5.454;2023-08-06T22:09:40;15.00;76.30
78733;DHT22;68056;52.530;5.454;2023-08-06T22:12:17;15.00;76.30
78733;DHT22;68056;52.530;5.454;2023-08-06T22:17:48;15.00;76.30
78733;DHT22;68056;52.530;5.454;2023-08-06T22:20:13;15.00;76.30
78733;DHT22;68056;52.530;5.454;2023-08-06T22:22:41;15.00;76.30
78733;DHT22;68056;52.530;5.454;2023-08-06T22:31:44;15.00;76.30
78733;DHT22;68056;52.530;5.454;2023-08-06T22:34:14;15.00;76.40
78733;DHT22;68056;52.530;5.454;2023-08-06T22:42:35;15.00;76.40
78733;DHT22;68056;52.530;5.454;2023-08-06T22:48:14;15.10;76.40
78733;DHT22;68056;52.530;5.454;2023-08-06T22:57:34;15.10;76.60
78733;DHT22;68056;52.530;5.454;2023-08-06T23:03:27;15.20;76.70
78733;DHT22;68056;52.530;5.454;2023-08-06T23:13:05;15.40;76.90
78733;DHT22;68056;52.530;5.454;2023-08-06T23:26:03;15.50;76.90
78733;DHT22;68056;52.530;5.454;2023-08-06T23:57:49;15.00;77.50
